Terminal Aerodrome Forecast
Issued by NWS Huntsville, AL

Home | Current Version | Previous Version | Text Only | Print | Product List | Glossary On
Versions: 1 2 3 4 5 6 7 8 9 10 11 12 13 14 15 16 17
000
FTUS44 KHUN 031120
TAFMSL
TAF
KMSL 031120Z 0312/0412 33005KT P6SM SCT015 BKN040
     FM031400 30008KT P6SM SCT025 BKN040
     FM040200 VRB03KT P6SM FEW200=

USA.gov is the U.S. government's official web portal to all federal, state and local government web resources and services.